Terminal Aerodrome Forecast
Issued by NWS Mobile, AL

Home | Current Version | Previous Version | Text Only | Print | Product List | Glossary On
Versions: 1 2 3 4 5 6 7 8 9 10 11 12 13 14 15
000
FTUS44 KMOB 042220 AAA
TAFPNS
TAF AMD
KPNS 042220Z 0422/0518 24011KT P6SM -SHRA BKN010 OVC050
     FM050300 25008KT 4SM -SHRA BR OVC007
     FM050600 35006KT 3SM BR VCSH OVC009
     FM051400 03006KT 3SM SHRA BKN009=

USA.gov is the U.S. government's official web portal to all federal, state and local government web resources and services.